Time;durP1;ratioP1;P1;durP2;ratioP2;P2;SDS_P1;SDS_P2;PMS_P1;PMS_P2;Temp;Humidity;BMP_temperature;BMP_pressure;BME280_temperature;BME280_humidity;BME280_pressure;Samples;Min_cycle;Max_cycle;Signal;HPM_P1;HPM_P2
2022/04/23 00:02:11;;;;;;;23.47;14.70;;;9.20;99.90;;;;;;5044669;28;20180;-50
2022/04/23 00:04:38;;;;;;;33.63;14.87;;;9.10;99.90;;;;;;5033979;28;20184;-49
2022/04/23 00:07:05;;;;;;;31.93;16.53;;;9.10;99.90;;;;;;5052579;28;20225;-54
2022/04/23 00:09:32;;;;;;;32.77;16.57;;;9.00;99.90;;;;;;5034448;28;20175;-50
2022/04/23 00:11:58;;;;;;;24.20;15.30;;;9.00;99.90;;;;;;5017946;28;20544;-54
2022/04/23 00:14:25;;;;;;;28.03;15.23;;;8.90;99.90;;;;;;5033571;28;20190;-52
2022/04/23 00:16:51;;;;;;;22.97;14.20;;;8.90;99.90;;;;;;5052107;28;20207;-48
2022/04/23 00:19:18;;;;;;;26.93;15.23;;;8.90;99.90;;;;;;5017475;28;20180;-49
2022/04/23 00:21:44;;;;;;;26.67;14.40;;;8.90;99.90;;;;;;5034293;28;20177;-49
2022/04/23 00:24:10;;;;;;;24.37;14.67;;;8.90;99.90;;;;;;5033926;28;20286;-50
2022/04/23 00:26:36;;;;;;;27.17;14.77;;;8.80;99.90;;;;;;5051702;28;20637;-49
2022/04/23 00:29:03;;;;;;;28.17;14.60;;;8.80;99.90;;;;;;5017462;28;20181;-49
2022/04/23 00:31:29;;;;;;;23.87;14.87;;;8.80;99.90;;;;;;5051757;28;20271;-52
2022/04/23 00:33:55;;;;;;;27.07;15.27;;;8.70;99.90;;;;;;5017517;28;20195;-52
2022/04/23 00:36:23;;;;;;;25.93;16.13;;;8.80;99.90;;;;;;5018912;28;20255;-52
2022/04/23 00:38:53;;;;;;;26.57;15.70;;;8.80;99.90;;;;;;5056182;28;20529;-54
2022/04/23 00:44:07;;;;;;;36.60;20.00;;;9.00;99.90;;;;;;5055820;28;20189;-50
2022/04/23 00:46:34;;;;;;;31.20;20.60;;;9.10;99.90;;;;;;5075723;28;20174;-52
2022/04/23 00:49:00;;;;;;;34.87;20.13;;;9.10;99.90;;;;;;5058243;28;20517;-50
2022/04/23 00:51:28;;;;;;;33.70;19.30;;;9.10;99.90;;;;;;5057794;28;20182;-51
2022/04/23 00:53:55;;;;;;;34.67;19.57;;;9.00;99.90;;;;;;5058694;28;20183;-54
2022/04/23 00:56:23;;;;;;;37.63;19.90;;;8.90;99.90;;;;;;5077585;28;20679;-52
2022/04/23 00:58:50;;;;;;;36.33;20.90;;;8.70;99.90;;;;;;5061114;28;20210;-53
2022/04/23 01:01:19;;;;;;;37.23;22.70;;;8.70;99.90;;;;;;5093135;28;20170;-51
2022/04/23 01:03:45;;;;;;;39.73;22.83;;;8.60;99.90;;;;;;5041558;28;20195;-49
2022/04/23 01:06:12;;;;;;;41.90;23.50;;;8.60;99.90;;;;;;5057923;28;20174;-49
2022/04/23 01:08:38;;;;;;;39.30;22.87;;;8.50;99.90;;;;;;5041174;28;20541;-50
2022/04/23 01:11:05;;;;;;;41.97;24.17;;;8.50;99.90;;;;;;5075619;28;20244;-48
2022/04/23 01:13:32;;;;;;;41.43;23.40;;;8.40;99.90;;;;;;5057125;28;20205;-52
2022/04/23 01:16:02;;;;;;;39.57;25.07;;;8.40;99.90;;;;;;5040862;28;20586;-48
2022/04/23 01:18:29;;;;;;;41.13;24.57;;;8.40;99.90;;;;;;5075316;28;20167;-52
2022/04/23 01:20:59;;;;;;;44.13;25.97;;;8.50;99.90;;;;;;5057722;28;20171;-53
2022/04/23 01:23:26;;;;;;;45.67;25.83;;;8.50;99.90;;;;;;5056822;28;20218;-48
2022/04/23 01:25:54;;;;;;;48.57;26.73;;;8.40;99.90;;;;;;5057355;28;20627;-51
2022/04/23 01:28:27;;;;;;;45.50;28.03;;;8.40;99.90;;;;;;5075280;28;20235;-51
2022/04/23 01:30:56;;;;;;;49.67;27.70;;;8.40;99.90;;;;;;5057128;28;20269;-47
2022/04/23 01:33:23;;;;;;;49.80;28.90;;;8.40;99.90;;;;;;5056913;28;20524;-51
2022/04/23 01:35:49;;;;;;;48.17;30.40;;;8.50;99.90;;;;;;5056877;28;20277;-48
2022/04/23 01:38:15;;;;;;;50.93;31.17;;;8.60;99.90;;;;;;5057051;28;20213;-47
2022/04/23 01:40:42;;;;;;;55.07;31.30;;;8.70;99.90;;;;;;5056964;28;20183;-52
2022/04/23 01:43:09;;;;;;;60.70;31.53;;;8.80;99.90;;;;;;5063489;28;20211;-51
2022/04/23 01:45:37;;;;;;;52.37;32.20;;;9.00;99.90;;;;;;5076641;28;20264;-51
2022/04/23 01:48:03;;;;;;;60.80;31.63;;;9.10;99.90;;;;;;5076904;28;20613;-52
2022/04/23 01:50:29;;;;;;;58.60;34.93;;;9.10;99.90;;;;;;5076633;28;20591;-50
2022/04/23 01:52:56;;;;;;;60.47;35.50;;;9.20;99.90;;;;;;5095218;28;20179;-49
2022/04/23 01:55:22;;;;;;;70.43;36.50;;;9.20;99.90;;;;;;5076763;28;20223;-51
2022/04/23 01:57:48;;;;;;;63.23;37.90;;;9.30;99.90;;;;;;5095171;28;20301;-50
2022/04/23 02:00:15;;;;;;;61.97;37.70;;;9.30;99.90;;;;;;5094816;28;20181;-50
2022/04/23 02:02:44;;;;;;;67.57;37.70;;;9.40;99.90;;;;;;5039750;28;20342;-50
2022/04/23 02:05:11;;;;;;;74.90;38.80;;;9.40;99.90;;;;;;5039953;28;20529;-49
2022/04/23 02:07:44;;;;;;;74.83;42.80;;;9.40;99.90;;;;;;5079514;28;20505;-51
2022/04/23 02:10:13;;;;;;;70.90;40.53;;;9.50;99.90;;;;;;5092404;28;20181;-51
2022/04/23 02:12:40;;;;;;;70.70;40.23;;;9.50;99.90;;;;;;5058997;28;20262;-52
2022/04/23 02:15:11;;;;;;;75.00;43.00;;;9.50;99.90;;;;;;5074481;28;20177;-48
2022/04/23 02:17:39;;;;;;;83.27;42.47;;;9.60;99.90;;;;;;5073997;28;20251;-49
2022/04/23 02:20:07;;;;;;;71.80;41.40;;;9.60;99.90;;;;;;5057001;28;20255;-48
2022/04/23 02:22:33;;;;;;;81.17;42.37;;;9.60;99.90;;;;;;5039349;28;20185;-50
2022/04/23 02:25:00;;;;;;;73.60;42.33;;;9.60;99.90;;;;;;5056543;28;20196;-51
2022/04/23 02:27:27;;;;;;;71.53;41.53;;;9.60;99.90;;;;;;5073860;28;20173;-53
2022/04/23 02:29:54;;;;;;;88.90;44.27;;;9.60;99.90;;;;;;5039975;28;20188;-51
2022/04/23 02:32:21;;;;;;;73.33;41.40;;;9.60;99.90;;;;;;5074052;28;20172;-51
2022/04/23 02:34:48;;;;;;;72.73;41.43;;;9.60;99.90;;;;;;5056079;28;20203;-50
2022/04/23 02:37:14;;;;;;;70.47;41.67;;;9.60;99.90;;;;;;5056116;28;20561;-50
2022/04/23 02:39:40;;;;;;;74.57;41.87;;;9.60;99.90;;;;;;5073732;28;20250;-52
2022/04/23 02:42:09;;;;;;;76.47;42.20;;;9.60;99.90;;;;;;5056097;28;20632;-51
2022/04/23 02:44:35;;;;;;;67.37;41.43;;;9.60;99.90;;;;;;5057422;28;20630;-53
2022/04/23 02:47:02;;;;;;;72.97;42.23;;;9.60;99.90;;;;;;5093874;28;20175;-50
2022/04/23 02:49:28;;;;;;;67.37;40.90;;;9.60;99.90;;;;;;5075611;28;20187;-51
2022/04/23 02:51:54;;;;;;;73.37;42.17;;;9.60;99.90;;;;;;5075687;28;20217;-51
2022/04/23 02:54:20;;;;;;;76.87;41.60;;;9.60;99.90;;;;;;5058919;28;20218;-49
2022/04/23 02:56:46;;;;;;;77.27;41.00;;;9.60;99.90;;;;;;5093442;28;20519;-50
2022/04/23 02:59:12;;;;;;;76.50;42.00;;;9.50;99.90;;;;;;5075519;28;20281;-47
2022/04/23 03:01:39;;;;;;;81.20;43.37;;;9.60;99.90;;;;;;5087042;28;20182;-51
2022/04/23 03:04:05;;;;;;;82.00;44.67;;;9.50;99.90;;;;;;5022396;28;20185;-51
2022/04/23 03:06:33;;;;;;;74.37;42.53;;;9.60;99.90;;;;;;5054910;28;20207;-49
2022/04/23 03:09:03;;;;;;;76.77;43.97;;;9.50;99.90;;;;;;5073410;28;20177;-48
2022/04/23 03:11:30;;;;;;;80.97;43.73;;;9.50;99.90;;;;;;5054604;28;20274;-48
2022/04/23 03:13:58;;;;;;;81.37;43.10;;;9.50;99.90;;;;;;5054943;28;20224;-51
2022/04/23 03:16:28;;;;;;;76.37;43.20;;;9.50;99.90;;;;;;5055144;28;20544;-49
2022/04/23 03:18:56;;;;;;;80.27;43.37;;;9.50;99.90;;;;;;5055200;28;20255;-49
2022/04/23 03:21:22;;;;;;;77.57;42.60;;;9.50;99.90;;;;;;5072919;28;20169;-51
2022/04/23 03:23:49;;;;;;;76.47;40.97;;;9.50;99.90;;;;;;5054715;28;20545;-54
2022/04/23 03:26:15;;;;;;;78.83;43.10;;;9.40;99.90;;;;;;5072825;28;20220;-52
2022/04/23 03:28:42;;;;;;;87.17;43.33;;;9.40;99.90;;;;;;5055051;28;20191;-51
2022/04/23 03:31:09;;;;;;;79.87;42.10;;;9.40;99.90;;;;;;5038491;28;20180;-52
2022/04/23 03:33:35;;;;;;;81.97;40.07;;;9.40;99.90;;;;;;5054796;28;20507;-51
2022/04/23 03:36:02;;;;;;;73.00;40.47;;;9.30;99.90;;;;;;5038512;28;20176;-51
2022/04/23 03:38:29;;;;;;;70.27;41.73;;;9.30;99.90;;;;;;5054740;28;20507;-49
2022/04/23 03:40:55;;;;;;;82.40;42.23;;;9.30;99.90;;;;;;5054762;28;20184;-50
2022/04/23 03:43:25;;;;;;;69.10;39.73;;;9.30;99.90;;;;;;5062830;28;20217;-49
2022/04/23 03:45:53;;;;;;;70.53;39.93;;;9.20;99.90;;;;;;5074997;28;20179;-50
2022/04/23 03:48:19;;;;;;;74.23;41.13;;;9.20;99.90;;;;;;5074394;28;20623;-52
2022/04/23 03:50:47;;;;;;;81.80;41.53;;;9.10;99.90;;;;;;5074350;28;20185;-49
2022/04/23 03:53:13;;;;;;;75.83;40.83;;;9.10;99.90;;;;;;5092553;28;20609;-52
2022/04/23 03:55:39;;;;;;;68.80;40.47;;;9.00;99.90;;;;;;5074342;28;20232;-51
2022/04/23 03:58:06;;;;;;;71.33;40.97;;;8.90;99.90;;;;;;5074491;28;20523;-49
2022/04/23 04:00:33;;;;;;;72.23;40.00;;;8.90;99.90;;;;;;5041396;28;20263;-50
2022/04/23 04:02:59;;;;;;;72.17;40.70;;;8.90;99.90;;;;;;5040486;28;20177;-51
2022/04/23 04:05:25;;;;;;;78.93;42.60;;;8.90;99.90;;;;;;5054762;28;20295;-51
2022/04/23 04:07:52;;;;;;;78.33;39.40;;;8.90;99.90;;;;;;5037586;28;20599;-49
2022/04/23 04:10:23;;;;;;;79.37;40.00;;;9.00;99.90;;;;;;5071788;28;20494;-52
2022/04/23 04:12:50;;;;;;;78.93;39.77;;;9.10;99.90;;;;;;5053715;28;20551;-51
2022/04/23 04:15:17;;;;;;;76.97;40.10;;;9.20;99.90;;;;;;5072395;28;20174;-51
2022/04/23 04:17:45;;;;;;;82.83;40.00;;;9.20;99.90;;;;;;5053503;28;20298;-48
2022/04/23 04:20:14;;;;;;;84.93;40.63;;;9.20;99.90;;;;;;5072259;28;20171;-50
2022/04/23 04:22:41;;;;;;;87.13;41.83;;;9.20;99.90;;;;;;5071720;28;20175;-53
2022/04/23 04:25:09;;;;;;;73.50;39.97;;;9.30;99.90;;;;;;5071971;28;20181;-50
2022/04/23 04:27:37;;;;;;;73.57;37.90;;;9.30;99.90;;;;;;5071561;28;20202;-51
2022/04/23 04:30:04;;;;;;;73.27;38.60;;;9.30;99.90;;;;;;5072166;28;20182;-52
2022/04/23 04:32:31;;;;;;;71.83;37.33;;;9.50;99.90;;;;;;5053910;28;20173;-52
2022/04/23 04:34:57;;;;;;;64.17;37.57;;;9.50;99.90;;;;;;5053996;28;20575;-51
2022/04/23 04:37:23;;;;;;;68.77;36.93;;;9.60;99.90;;;;;;5072205;28;20683;-53
2022/04/23 04:39:50;;;;;;;85.57;37.83;;;9.70;99.90;;;;;;5053822;28;20891;-51
2022/04/23 04:42:16;;;;;;;74.70;35.47;;;9.70;99.90;;;;;;5036957;28;20176;-51
2022/04/23 04:44:42;;;;;;;73.60;36.90;;;9.80;99.90;;;;;;5090667;28;20252;-50
2022/04/23 04:47:09;;;;;;;70.53;35.30;;;10.00;99.90;;;;;;5056617;28;20554;-51
2022/04/23 04:49:35;;;;;;;63.60;35.33;;;10.00;99.90;;;;;;5091112;28;20200;-49
2022/04/23 04:52:02;;;;;;;79.37;36.40;;;10.00;99.90;;;;;;5091887;28;20230;-49
2022/04/23 04:54:28;;;;;;;55.20;30.73;;;10.10;99.90;;;;;;5091474;28;20220;-52
2022/04/23 04:56:56;;;;;;;55.23;30.00;;;10.10;99.90;;;;;;5072977;28;20219;-52
2022/04/23 04:59:22;;;;;;;59.10;30.60;;;10.10;99.90;;;;;;5073653;28;20189;-48
2022/04/23 05:01:52;;;;;;;50.03;28.63;;;10.10;99.90;;;;;;5066428;28;20178;-52
2022/04/23 05:04:18;;;;;;;50.97;28.57;;;10.30;99.90;;;;;;5053574;28;20279;-51
2022/04/23 05:06:44;;;;;;;43.77;25.97;;;10.50;99.90;;;;;;5036531;28;20190;-54
2022/04/23 05:09:10;;;;;;;53.03;28.80;;;10.50;99.90;;;;;;5037021;28;20277;-54
2022/04/23 05:11:37;;;;;;;54.20;27.50;;;10.60;99.90;;;;;;5071323;28;20175;-52
2022/04/23 05:14:03;;;;;;;46.97;26.73;;;10.60;99.90;;;;;;5053354;28;20205;-54
2022/04/23 05:16:29;;;;;;;49.50;27.43;;;10.70;99.90;;;;;;5037179;28;20352;-55
2022/04/23 05:18:56;;;;;;;57.30;29.13;;;10.80;99.90;;;;;;5053496;28;20185;-59
2022/04/23 05:21:22;;;;;;;55.43;28.00;;;10.90;99.90;;;;;;5071515;28;20185;-56
2022/04/23 05:23:48;;;;;;;52.40;27.17;;;10.90;99.90;;;;;;5064543;28;20227;-53
2022/04/23 05:26:14;;;;;;;45.63;27.33;;;11.00;99.90;;;;;;5073554;28;20218;-59
2022/04/23 05:28:41;;;;;;;54.90;29.07;;;11.10;99.90;;;;;;5056535;28;20385;-57
2022/04/23 05:31:08;;;;;;;61.93;29.67;;;11.20;99.90;;;;;;5057232;28;20218;-53
2022/04/23 05:33:35;;;;;;;54.17;28.97;;;11.20;99.90;;;;;;5067816;28;20203;-53
2022/04/23 05:36:02;;;;;;;45.37;26.97;;;11.30;99.90;;;;;;5081948;28;20294;-56
2022/04/23 05:38:27;;;;;;;46.90;27.23;;;11.30;99.90;;;;;;5071530;28;20202;-54
2022/04/23 05:40:53;;;;;;;53.97;27.83;;;11.20;99.90;;;;;;5054246;28;20201;-55
2022/04/23 05:43:19;;;;;;;46.87;26.67;;;11.40;99.90;;;;;;5055888;28;20698;-55
2022/04/23 05:45:45;;;;;;;49.70;28.40;;;11.40;99.90;;;;;;5055807;28;20222;-58
2022/04/23 05:48:11;;;;;;;49.20;27.03;;;11.40;99.90;;;;;;5072506;28;20196;-58
2022/04/23 05:50:37;;;;;;;50.40;28.67;;;11.50;99.90;;;;;;5071916;28;20191;-58
2022/04/23 05:53:03;;;;;;;60.27;29.70;;;11.50;99.90;;;;;;5072141;28;20248;-53
2022/04/23 05:55:29;;;;;;;58.47;29.70;;;11.30;99.90;;;;;;5088012;28;20297;-55
2022/04/23 05:57:55;;;;;;;58.83;29.83;;;11.40;99.90;;;;;;5087936;28;20222;-57
2022/04/23 06:00:21;;;;;;;50.93;28.40;;;11.50;99.90;;;;;;5091777;28;20178;-58
2022/04/23 06:02:47;;;;;;;59.67;32.37;;;11.50;99.90;;;;;;5057980;28;20186;-58
2022/04/23 06:05:13;;;;;;;53.60;29.87;;;11.60;99.90;;;;;;5073971;28;20530;-53
2022/04/23 06:07:39;;;;;;;62.77;31.17;;;11.80;99.90;;;;;;5092621;28;20196;-55
2022/04/23 06:10:06;;;;;;;63.03;31.67;;;12.10;99.90;;;;;;5041710;28;20184;-55
2022/04/23 06:12:32;;;;;;;60.63;32.40;;;12.00;99.90;;;;;;5092649;28;20271;-55
2022/04/23 06:14:58;;;;;;;59.83;31.77;;;11.90;99.90;;;;;;5074975;28;20230;-52
2022/04/23 06:17:28;;;;;;;53.47;30.50;;;11.80;99.90;;;;;;5089232;28;20224;-56
2022/04/23 06:19:55;;;;;;;54.20;30.07;;;12.00;99.90;;;;;;5072929;28;20249;-60
2022/04/23 06:22:24;;;;;;;56.43;32.07;;;12.30;99.90;;;;;;5074182;28;20188;-57
2022/04/23 06:24:51;;;;;;;60.97;32.87;;;12.50;99.90;;;;;;5073691;28;20188;-57
2022/04/23 06:27:18;;;;;;;54.70;31.70;;;12.80;99.90;;;;;;5057960;28;20897;-57
2022/04/23 06:29:44;;;;;;;53.13;30.67;;;12.90;99.90;;;;;;5073461;28;20192;-58
2022/04/23 06:32:11;;;;;;;57.17;31.37;;;12.80;99.90;;;;;;5074821;28;20184;-52
2022/04/23 06:34:38;;;;;;;59.70;31.53;;;12.80;99.90;;;;;;5072001;28;20176;-58
2022/04/23 06:37:05;;;;;;;52.10;31.00;;;12.90;99.90;;;;;;5072589;28;20236;-57
2022/04/23 06:39:31;;;;;;;53.53;32.77;;;13.10;99.90;;;;;;5074140;28;20188;-53
2022/04/23 06:41:57;;;;;;;52.10;30.77;;;12.90;99.90;;;;;;5073942;28;20246;-53
2022/04/23 06:44:24;;;;;;;54.97;32.77;;;13.10;99.90;;;;;;5056942;28;20185;-52
2022/04/23 06:46:50;;;;;;;65.60;32.77;;;13.40;99.90;;;;;;5073454;28;20200;-54
2022/04/23 06:49:17;;;;;;;50.87;30.57;;;13.70;99.90;;;;;;5040525;28;20184;-53
2022/04/23 06:51:43;;;;;;;53.20;30.37;;;13.90;99.90;;;;;;5090897;28;20234;-61
2022/04/23 06:54:10;;;;;;;53.37;30.27;;;14.10;99.90;;;;;;5071914;28;20307;-53
2022/04/23 06:56:37;;;;;;;54.97;32.40;;;14.00;99.90;;;;;;5081331;28;20220;-56
2022/04/23 06:59:04;;;;;;;55.77;33.57;;;14.20;99.90;;;;;;5071169;28;20619;-56
2022/04/23 07:01:30;;;;;;;70.50;35.70;;;14.30;99.90;;;;;;5072110;28;20193;-56
2022/04/23 07:03:56;;;;;;;59.37;32.53;;;14.90;99.90;;;;;;5071367;28;20201;-51
2022/04/23 07:06:22;;;;;;;67.90;35.13;;;15.10;99.90;;;;;;5068510;28;20189;-52
2022/04/23 07:08:48;;;;;;;54.80;33.47;;;15.00;99.90;;;;;;5054756;28;20197;-53
2022/04/23 07:11:13;;;;;;;52.23;30.73;;;15.30;99.90;;;;;;5070812;28;20202;-58
2022/04/23 07:13:39;;;;;;;56.23;31.17;;;15.60;99.90;;;;;;5050859;28;20249;-58
2022/04/23 07:16:05;;;;;;;58.17;32.87;;;15.60;99.90;;;;;;5054191;28;20192;-59
2022/04/23 07:18:32;;;;;;;68.47;34.13;;;15.50;99.90;;;;;;5054078;28;20200;-59
2022/04/23 07:20:58;;;;;;;57.07;33.20;;;15.40;99.90;;;;;;5080194;28;20189;-60
2022/04/23 07:26:10;;;;;;;54.13;31.53;;;15.40;99.90;;;;;;5072864;28;20764;-57
2022/04/23 07:28:37;;;;;;;59.20;33.53;;;15.30;99.90;;;;;;5081292;28;20189;-60
2022/04/23 07:31:03;;;;;;;52.17;31.70;;;15.10;99.90;;;;;;5053430;28;20275;-51
2022/04/23 07:38:58;;;;;;;67.00;34.27;;;15.10;99.90;;;;;;5070577;28;20192;-59
2022/04/23 07:41:23;;;;;;;63.43;34.20;;;14.90;99.90;;;;;;5070493;28;20181;-59
2022/04/23 07:43:49;;;;;;;66.13;35.67;;;14.90;99.90;;;;;;5070791;28;20618;-58
2022/04/23 07:46:15;;;;;;;65.87;35.13;;;15.00;99.90;;;;;;5036456;28;20631;-56
2022/04/23 07:48:41;;;;;;;55.07;34.07;;;15.20;99.90;;;;;;5081015;28;20191;-53
2022/04/23 07:51:08;;;;;;;60.40;33.87;;;15.30;99.90;;;;;;5080421;28;20630;-51
2022/04/23 07:53:34;;;;;;;60.67;33.40;;;15.60;99.90;;;;;;5052718;28;20193;-56
2022/04/23 07:56:00;;;;;;;53.17;33.50;;;15.90;99.90;;;;;;5049900;28;20623;-55
2022/04/23 07:58:26;;;;;;;52.63;33.13;;;15.90;99.90;;;;;;5057718;28;20451;-53
2022/04/23 08:00:52;;;;;;;63.47;33.73;;;15.80;99.90;;;;;;5046565;28;20202;-56
2022/04/23 08:03:18;;;;;;;56.23;34.13;;;15.80;99.90;;;;;;5058283;28;20612;-53
2022/04/23 08:05:43;;;;;;;60.77;34.90;;;15.90;99.90;;;;;;5031987;28;20213;-53
2022/04/23 08:08:10;;;;;;;56.07;34.43;;;15.90;99.90;;;;;;5047740;28;20288;-56
2022/04/23 08:10:36;;;;;;;59.53;34.93;;;15.90;99.90;;;;;;5048850;28;20189;-54
2022/04/23 08:13:02;;;;;;;56.87;34.97;;;15.90;99.90;;;;;;5048737;28;20261;-53
2022/04/23 08:15:28;;;;;;;65.47;35.40;;;15.80;99.90;;;;;;5058082;28;20201;-54
2022/04/23 08:17:54;;;;;;;58.00;35.13;;;15.80;99.90;;;;;;5058384;28;20224;-54
2022/04/23 08:20:21;;;;;;;69.67;37.30;;;15.90;99.90;;;;;;5049030;28;20511;-54
2022/04/23 08:22:47;;;;;;;58.67;35.93;;;16.00;99.90;;;;;;5049072;28;20169;-52
2022/04/23 08:25:13;;;;;;;54.00;34.00;;;16.40;99.90;;;;;;5049369;28;20609;-56
2022/04/23 08:30:41;;;;;;;55.80;32.73;;;16.50;99.90;;;;;;5050355;28;20258;-51
2022/04/23 08:33:07;;;;;;;53.67;32.37;;;16.40;99.90;;;;;;5060291;28;20200;-51
2022/04/23 08:35:35;;;;;;;52.90;33.53;;;16.40;99.90;;;;;;5059792;28;20189;-53
2022/04/23 08:38:01;;;;;;;53.03;33.07;;;16.20;99.90;;;;;;5059499;28;20208;-52
2022/04/23 08:40:32;;;;;;;55.33;31.73;;;16.00;99.90;;;;;;5050478;28;20576;-54
2022/04/23 08:42:59;;;;;;;51.03;32.30;;;16.20;99.90;;;;;;5050341;28;20208;-53
2022/04/23 08:45:25;;;;;;;54.53;32.43;;;16.20;99.90;;;;;;5050248;28;20190;-52
2022/04/23 08:47:51;;;;;;;47.77;31.23;;;16.20;99.90;;;;;;5058464;28;20190;-51
2022/04/23 08:50:21;;;;;;;50.50;32.43;;;16.20;99.90;;;;;;5032965;28;20225;-56
2022/04/23 08:52:54;;;;;;;49.50;31.27;;;16.30;99.90;;;;;;5047884;28;20194;-53
2022/04/23 08:55:20;;;;;;;49.33;31.93;;;15.70;99.90;;;;;;5062116;28;20331;-56
2022/04/23 08:57:46;;;;;;;51.77;32.17;;;15.70;99.90;;;;;;5071308;28;20213;-49
2022/04/23 09:00:14;;;;;;;50.00;30.27;;;16.20;99.90;;;;;;5057431;28;20205;-56
2022/04/23 09:02:42;;;;;;;51.80;31.03;;;16.60;99.90;;;;;;5074365;28;20215;-53
2022/04/23 09:05:13;;;;;;;46.93;29.73;;;17.20;99.90;;;;;;5073574;28;20192;-53
2022/04/23 09:07:39;;;;;;;46.43;30.13;;;17.40;99.90;;;;;;5083871;28;20277;-52
2022/04/23 09:10:06;;;;;;;52.37;29.70;;;17.80;99.90;;;;;;5073901;28;20178;-54
2022/04/23 09:12:32;;;;;;;51.33;28.20;;;18.00;99.90;;;;;;5074258;28;20241;-55
2022/04/23 09:23:41;;;;;;;56.27;29.57;;;18.20;99.90;;;;;;5084142;28;20260;-51
2022/04/23 09:26:17;;;;;;;50.87;28.73;;;18.50;99.90;;;;;;5083520;28;20185;-56
2022/04/23 09:28:55;;;;;;;51.07;28.80;;;18.40;99.80;;;;;;5083658;28;20178;-57
2022/04/23 09:31:24;;;;;;;47.10;29.27;;;18.30;99.90;;;;;;5073408;28;20664;-53
2022/04/23 09:33:54;;;;;;;48.67;30.90;;;18.10;99.90;;;;;;5056529;28;20205;-54
2022/04/23 09:36:20;;;;;;;55.63;31.07;;;17.80;99.90;;;;;;5057193;28;20185;-54
2022/04/23 09:39:03;;;;;;;49.30;30.47;;;17.90;99.90;;;;;;5072332;28;20195;-55
2022/04/23 09:41:36;;;;;;;46.67;29.90;;;17.70;99.90;;;;;;5073319;28;20180;-53
2022/04/23 09:44:12;;;;;;;45.20;29.03;;;17.20;99.90;;;;;;5082815;28;20197;-52
2022/04/23 09:46:48;;;;;;;51.73;30.40;;;16.80;99.90;;;;;;5057107;28;20188;-55
2022/04/23 09:49:22;;;;;;;45.10;29.10;;;16.60;99.90;;;;;;5083588;28;20185;-53
2022/04/23 09:52:08;;;;;;;40.50;27.73;;;16.40;99.90;;;;;;5082915;28;20269;-54
2022/04/23 09:54:35;;;;;;;47.80;29.40;;;15.90;99.90;;;;;;5056102;28;20303;-51
2022/04/23 09:57:02;;;;;;;48.87;28.57;;;15.70;99.90;;;;;;5039460;28;20212;-50
2022/04/23 09:59:28;;;;;;;43.50;27.47;;;15.50;99.90;;;;;;5073021;28;20642;-51
2022/04/23 10:01:58;;;;;;;44.93;28.50;;;15.40;99.90;;;;;;5055603;28;20651;-53
2022/04/23 10:04:26;;;;;;;43.70;27.20;;;15.20;99.90;;;;;;5082472;28;20195;-56
2022/04/23 10:06:54;;;;;;;50.67;29.07;;;14.90;99.90;;;;;;5072246;28;20190;-52
2022/04/23 10:09:26;;;;;;;41.63;26.60;;;14.40;99.90;;;;;;5071152;28;20250;-52
2022/04/23 10:12:04;;;;;;;41.80;26.57;;;13.90;99.90;;;;;;5082945;28;20675;-52
2022/04/23 10:14:37;;;;;;;43.90;27.37;;;13.40;99.90;;;;;;5072567;28;20296;-56
2022/04/23 10:17:08;;;;;;;44.13;26.40;;;13.10;99.90;;;;;;5071941;28;20205;-55
2022/04/23 10:19:36;;;;;;;47.67;27.07;;;13.00;99.90;;;;;;5072917;28;20595;-54
2022/04/23 10:22:19;;;;;;;51.07;28.77;;;12.80;99.90;;;;;;5082828;28;20186;-52
2022/04/23 10:25:22;;;;;;;52.23;27.50;;;12.60;99.90;;;;;;5072637;28;20203;-64
2022/04/23 10:27:49;;;;;;;48.10;27.87;;;12.50;99.90;;;;;;5082684;28;20174;-53
2022/04/23 10:30:16;;;;;;;50.23;29.47;;;12.40;99.90;;;;;;5072452;28;20195;-50
2022/04/23 10:32:43;;;;;;;59.23;30.07;;;12.40;99.90;;;;;;5071712;28;20194;-53
2022/04/23 10:35:18;;;;;;;54.90;32.23;;;12.40;99.90;;;;;;5072324;28;20285;-52
2022/04/23 10:37:50;;;;;;;55.70;31.77;;;12.40;99.90;;;;;;5072337;28;20221;-54
2022/04/23 10:40:18;;;;;;;54.50;33.00;;;12.30;99.90;;;;;;5073010;28;20179;-54
2022/04/23 10:43:07;;;;;;;60.10;34.73;;;12.40;99.90;;;;;;5081857;28;20267;-54
2022/04/23 10:45:35;;;;;;;68.53;36.37;;;12.40;99.90;;;;;;5071479;28;20248;-52
2022/04/23 10:48:19;;;;;;;61.17;34.63;;;12.50;99.90;;;;;;5089564;28;20215;-53
2022/04/23 10:51:04;;;;;;;66.40;36.47;;;12.50;99.90;;;;;;5075333;28;20176;-54
2022/04/23 10:53:40;;;;;;;62.77;36.40;;;12.50;99.90;;;;;;5092550;28;20268;-53
2022/04/23 10:56:19;;;;;;;66.00;36.67;;;12.60;99.90;;;;;;5074844;28;20638;-54
2022/04/23 10:58:46;;;;;;;65.50;35.03;;;12.80;99.90;;;;;;5093632;28;20185;-52
2022/04/23 11:01:23;;;;;;;61.67;35.00;;;12.70;99.90;;;;;;5094060;28;20187;-57
2022/04/23 11:03:55;;;;;;;59.40;33.50;;;12.80;99.90;;;;;;5093177;28;20283;-50
2022/04/23 11:12:33;;;;;;;61.37;36.93;;;12.90;99.90;;;;;;5093506;28;20187;-50
2022/04/23 11:15:01;;;;;;;66.27;38.63;;;12.80;99.90;;;;;;5075143;28;20180;-54
2022/04/23 11:17:36;;;;;;;64.60;37.50;;;12.90;99.90;;;;;;5093241;28;20207;-51
2022/04/23 11:20:02;;;;;;;60.67;36.70;;;13.00;99.90;;;;;;5092741;28;20259;-57
2022/04/23 11:22:28;;;;;;;60.30;35.70;;;13.20;99.90;;;;;;5075193;28;20643;-57
2022/04/23 11:24:57;;;;;;;56.47;35.07;;;13.20;99.90;;;;;;5074733;28;20185;-53
2022/04/23 11:27:28;;;;;;;53.27;33.83;;;12.90;99.90;;;;;;5074768;28;20189;-55
2022/04/23 11:29:55;;;;;;;58.27;32.67;;;12.70;99.90;;;;;;5058082;28;20182;-52
2022/04/23 11:32:29;;;;;;;58.70;32.93;;;12.70;99.90;;;;;;5074805;28;20181;-53
2022/04/23 11:34:59;;;;;;;51.40;31.47;;;12.60;99.90;;;;;;5092850;28;20185;-51
2022/04/23 11:37:33;;;;;;;62.53;33.93;;;12.40;99.90;;;;;;5074594;28;20207;-51
2022/04/23 11:40:12;;;;;;;56.67;34.67;;;12.40;99.90;;;;;;5093599;28;20179;-52
2022/04/23 11:42:43;;;;;;;53.00;32.90;;;12.30;99.90;;;;;;5072466;28;20263;-55
2022/04/23 11:45:11;;;;;;;61.43;34.00;;;12.40;99.90;;;;;;5054505;28;20596;-53
2022/04/23 11:47:37;;;;;;;51.57;31.80;;;12.40;99.90;;;;;;5054576;28;20224;-55
2022/04/23 11:50:14;;;;;;;53.17;30.80;;;12.40;99.90;;;;;;5072168;28;20188;-53
2022/04/23 11:53:03;;;;;;;59.87;35.40;;;12.30;99.90;;;;;;5054178;28;20274;-53
2022/04/23 11:55:32;;;;;;;61.37;33.47;;;12.60;99.90;;;;;;5073141;28;20558;-52
2022/04/23 11:58:06;;;;;;;56.27;33.60;;;12.70;99.90;;;;;;5053976;28;20211;-52
2022/04/23 12:00:34;;;;;;;50.83;32.37;;;12.90;99.90;;;;;;5054151;28;20198;-51
2022/04/23 12:03:03;;;;;;;53.60;33.23;;;13.00;99.90;;;;;;5054541;28;20181;-54
2022/04/23 12:05:34;;;;;;;52.53;32.27;;;13.20;99.90;;;;;;5072613;28;20188;-53
2022/04/23 12:08:02;;;;;;;56.00;33.40;;;13.10;99.90;;;;;;5053660;28;20208;-52
2022/04/23 12:10:32;;;;;;;52.53;32.07;;;13.00;99.90;;;;;;5055598;28;20199;-56
2022/04/23 12:13:08;;;;;;;47.00;29.27;;;13.00;99.90;;;;;;5037977;28;20280;-54
2022/04/23 12:15:44;;;;;;;47.93;29.23;;;13.10;99.90;;;;;;5054840;28;20238;-56
2022/04/23 12:18:23;;;;;;;45.43;26.53;;;13.10;99.90;;;;;;5072097;28;20219;-54
2022/04/23 12:20:49;;;;;;;43.53;26.50;;;12.80;99.90;;;;;;5039305;28;20273;-55
2022/04/23 12:23:15;;;;;;;46.43;27.17;;;12.50;99.90;;;;;;5071777;28;20293;-56
2022/04/23 12:25:42;;;;;;;44.60;28.30;;;12.40;99.90;;;;;;5054908;28;20523;-55
2022/04/23 12:42:03;;;;;;;44.67;26.60;;;12.70;99.90;;;;;;5092786;28;20167;-57
2022/04/23 12:44:43;;;;;;;48.33;27.73;;;12.70;99.90;;;;;;5058738;28;20191;-55
2022/04/23 12:47:26;;;;;;;52.60;31.17;;;12.80;99.90;;;;;;5056635;28;20177;-53
2022/04/23 12:49:55;;;;;;;41.60;24.37;;;13.10;99.90;;;;;;5072510;28;20192;-54
2022/04/23 12:52:29;;;;;;;41.63;25.57;;;13.30;99.90;;;;;;5054435;28;20191;-54
2022/04/23 12:55:21;;;;;;;39.47;24.07;;;13.80;99.90;;;;;;5071994;28;20229;-58
2022/04/23 12:58:04;;;;;;;36.67;23.90;;;14.40;99.90;;;;;;5072281;28;20205;-56
2022/04/23 13:00:38;;;;;;;37.20;23.10;;;15.50;99.90;;;;;;5071304;28;20183;-56
2022/04/23 13:03:44;;;;;;;34.33;22.03;;;16.60;99.90;;;;;;5071117;28;20511;-54
2022/04/23 13:08:54;;;;;;;33.07;21.80;;;16.50;99.90;;;;;;5070513;28;20273;-54
2022/04/23 13:08:56;;;;;;;31.43;21.33;;;16.60;99.90;;;;;;5071309;28;20530;-55
2022/04/23 13:11:27;;;;;;;33.80;22.87;;;16.50;99.90;;;;;;5071730;28;20170;-57
2022/04/23 13:13:59;;;;;;;33.93;21.77;;;16.70;99.90;;;;;;5021630;28;20173;-54
2022/04/23 13:16:28;;;;;;;35.63;22.70;;;16.50;99.90;;;;;;5053271;28;20236;-54
2022/04/23 13:19:00;;;;;;;37.30;21.30;;;16.20;99.90;;;;;;5053397;28;20247;-57
2022/04/23 13:21:29;;;;;;;44.60;23.23;;;16.30;99.90;;;;;;5053321;28;20534;-56